Sagehen Creek Weather observations

Data are for observation ending at time listed.
 Day   Time    Ave.   Ave.  Ave.  Vector   Max.   Stn.    Total    Solar   Ave.  
  of    of     Air    Rel.  Wind   Wind    Wind   Baro.  Precip.   Rad.    Soil  
Year   Day     Temp.  Hum.  Speed  Dir.    Gust   Pres.                    Temp. 
2014   (PST)    F      %     mph   deg.    mph     mb.     in.     W/m2     F   
------------------------------------------------------------------------------
 331   22:20   40.7    28    2.0    35      5.1   836.8   14.88       0    999.0
 331   22:30   43.0    24    1.4   349      3.5   837.1   14.88       0    999.0
 331   22:40   44.1    20    1.7   130      4.7   836.7   14.88       0    999.0
 331   22:50   45.4    20    2.1    75      6.6   836.9   14.88       0    999.0
 331   23:00   43.9    26    1.4   300      3.3   837.1   14.88       0    999.0
 331   23:10   42.2    27    1.1   332      3.7   836.8   14.88       0    999.0
 331   23:20   43.7    25    1.2    11      4.6   836.8   14.88       0    999.0
 331   23:30   44.3    26    1.9   122      4.8   836.8   14.88       0    999.0
 331   23:40   42.1    31    1.3   299      3.5   836.7   14.88       0    999.0
 331   23:50   41.4    29    1.4   302      3.7   836.6   14.88       0    999.0
 332    0:00   42.2    27    1.3   160      4.8   836.4   14.88       0    999.0
 332    0:10   41.5    28    1.0   270      3.4   836.6   14.88       0    999.0
 332    0:20   40.8    29    1.6   278      4.0   836.5   14.88       0    999.0
 332    0:30   43.3    23    3.3   261      7.2   836.4   14.88       0    999.0
 332    0:40   46.3    17    3.4   248      9.3   835.9   14.88       0    999.0
 332    0:50   47.4    15    3.5   219     10.2   836.1   14.88       0    999.0
 332    1:00   47.8    14    1.9   226      5.1   836.2   14.88       0    999.0
 332    1:10   47.2    15    2.6   231      7.5   835.8   14.88       0    999.0
 332    1:20   47.1    14    2.7   210      7.3   836.0   14.88       0    999.0
 332    1:30   47.6    14    3.0   246     11.0   836.2   14.88       0    999.0
 332    1:40   46.9    14    1.9   225      5.3   835.7   14.88       0    999.0
 332    1:50   46.6    14    2.6   235      7.5   835.8   14.88       0    999.0
 332    2:00   46.5    13    2.9   239     10.7   835.9   14.88       0    999.0
 332    2:10   47.2    12    2.8   251      6.0   835.9   14.88       0    999.0
 332    2:20   47.3    12    3.4   241     11.0   835.8   14.88       0    999.0
 332    2:30   47.6    12    2.4   244      7.6   835.6   14.88       0    999.0
 332    2:40   47.0    11    2.5   244      9.2   835.9   14.88       0    999.0
 332    2:50   47.6    11    3.6   253      9.8   835.8   14.88       0    999.0
 332    3:00   47.9    11    2.8   255      9.2   835.8   14.88       0    999.0
 332    3:10   47.6    10    3.1   228      8.9   835.6   14.88       0    999.0
 332    3:20   48.0    10    2.2   242      5.5   835.4   14.88       0    999.0
 332    3:30   47.4    10    2.7   254      5.6   835.1   14.88       0    999.0
 332    3:40   47.4    10    3.0   255      7.2   835.2   14.88       0    999.0
 332    3:50   47.9     9    3.9   244     12.2   835.2   14.88       0    999.0
 332    4:00   48.1    10    3.9   245     13.9   835.3   14.88       0    999.0
 332    4:10   48.3    10    3.6   235     11.7   835.1   14.88       0    999.0
 332    4:20   48.0     9    4.2   259     11.7   835.1   14.88       0    999.0
 332    4:30   48.0     9    3.9   219     10.2   835.1   14.88       0    999.0
 332    4:40   47.6     9    3.1   256      7.9   835.1   14.88       0    999.0
 332    4:50   47.7     9    3.9   256      9.1   834.8   14.88       0    999.0
 332    5:00   48.0     8    4.5   258     10.1   834.5   14.88       0    999.0
 332    5:10   47.9     9    3.9   267     10.0   834.5   14.88       0    999.0
 332    5:20   47.9     9    3.9   249      7.2   834.6   14.88       0    999.0
 332    5:30   47.6     9    4.3   244      9.4   834.6   14.88       0    999.0
 332    5:40   47.8     8    4.4   257     10.9   834.5   14.88       0    999.0
 332    5:50   47.6     9    3.4   249      7.4   834.3   14.88       0    999.0
 332    6:00   47.2     9    4.2   258      8.7   834.2   14.88       0    999.0
 332    6:10   47.1     9    3.6   252      8.8   834.7   14.88       0    999.0
 332    6:20   46.8    10    3.6   245      9.0   834.6   14.88       0    999.0
 332    6:30   46.4    10    4.1   261     12.7   834.5   14.88       0    999.0
 332    6:40   47.1     9    4.3   248     10.6   834.6   14.88       0    999.0
 332    6:50   46.4    10    4.0   241      7.7   834.3   14.88       1    999.0
 332    7:00   46.3     9    4.4   249     11.5   834.1   14.88       2    999.0
 332    7:10   46.9     9    5.0   268      9.7   834.3   14.87       3    999.0
 332    7:20   46.7     8    4.8   239     11.0   834.3   14.87       5    999.0
 332    7:30   46.9     8    4.8   258     10.4   834.3   14.88       7    999.0
 332    7:40   47.0     8    4.7   267     10.0   834.6   14.87      11    999.0
 332    7:50   47.1     9    4.5   260     10.1   834.6   14.87      19    999.0
 332    8:00   47.3     8    6.1   260     13.3   834.6   14.87      20    999.0
 332    8:10   47.4     9    4.6   249     10.5   834.9   14.87      22    999.0
 332    8:20   47.4     9    4.5   245     10.5   834.6   14.87      26    999.0
 332    8:30   47.5    10    3.7   241      9.3   834.4   14.87      83    999.0
 332    8:40   48.3    10    4.2   245     10.6   834.8   14.87     244    999.0
 332    8:50   49.3     9    4.1   235     10.8   834.6   14.87     270    999.0
 332    9:00   49.7     9    3.9   239     11.4   834.4   14.87     295    999.0
 332    9:10   50.3     9    3.8   229      8.1   835.1   14.87     319    999.0
 332    9:20   50.5     9    4.7   242     13.8   835.0   14.87     342    999.0
 332    9:30   50.8     9    5.1   250     11.5   834.8   14.87     363    999.0
 332    9:40   51.1     8    5.6   269     15.6   834.7   14.87     384    999.0
 332    9:50   51.2     9    5.0   262     12.7   834.9   14.87     404    999.0
 332   10:00   51.4     9    4.7   258     10.4   835.0   14.87     410    999.0
 332   10:10   51.5     9    5.4   250     12.6   835.1   14.87     441    999.0
 332   10:20   51.7     9    4.9   256     10.3   835.1   14.87     459    999.0
 332   10:30   52.0     9    5.4   274     12.5   835.1   14.87     478    999.0
 332   10:40   52.1     9    5.2   261     10.9   834.6   14.87     521    999.0
 332   10:50   52.9     9    4.4   256     10.3   834.7   14.87     618    999.0
 332   11:00   53.8     9    4.2   230      9.4   834.8   14.87     443    999.0
 332   11:10   51.5    10    4.0   224     11.2   834.9   14.87     164    999.0
 332   11:20   50.2    10    4.7   266     10.4   834.8   14.87     169    999.0
 332   11:30   50.3    10    5.4   256     12.9   834.8   14.87     316    999.0
 332   11:40   50.5    10    3.8   216     11.6   834.8   14.87     230    999.0
 332   11:50   49.9    11    3.9   231      9.8   834.5   14.87     184    999.0
 332   12:00   49.5    11    4.5   254     10.6   834.2   14.87     159    999.0
 332   12:10   49.1    12    3.3   217      6.7   834.0   14.87     116    999.0
 332   12:20   48.8    11    2.9   199      7.9   834.1   14.87     220    999.0
 332   12:30   49.4    11    4.3   236     11.4   834.2   14.86     327    999.0
 332   12:40   49.1    10    3.8   245      9.4   834.1   14.87     135    999.0
 332   12:50   48.4    11    4.3   264      9.9   834.0   14.87     147    999.0
 332   13:00   48.7    11    4.2   245     10.8   833.8   14.87     164    999.0
 332   13:10   48.6    11    3.3   260     12.5   833.6   14.87     119    999.0
 332   13:20   48.7    11    3.5   259      8.9   833.6   14.87     117    999.0
 332   13:30   48.1    12    3.9   272      8.2   833.6   14.87      89    999.0
 332   13:40   47.8    13    3.8   260      9.7   832.9   14.87      80    999.0
 332   13:50   47.4    13    3.5   272      8.4   833.2   14.87      80    999.0
 332   14:00   47.6    14    2.7   268      8.7   833.4   14.87      66    999.0
 332   14:10   47.2    14    3.6   247     10.3   832.9   14.87     122    999.0
 332   14:20   47.0    16    2.7   273      5.7   832.9   14.87      70    999.0
 332   14:30   46.8    15    3.5   264     10.0   832.9   14.87      47    999.0
 332   14:40   46.9    15    3.3   262     10.6   832.8   14.87      40    999.0
 332   14:50   46.3    17    2.9   274      7.8   832.6   14.87      24    999.0
 332   15:00   46.1    17    3.4   267      9.7   832.4   14.86      43    999.0
 332   15:10   46.6    16    3.4   266     11.3   832.7   14.87      89    999.0
 332   15:20   46.7    16    3.8   278      9.0   832.5   14.87      22    999.0
 332   15:30   46.9    16    3.8   278      9.4   832.4   14.87      20    999.0
 332   15:40   46.6    16    4.1   269      9.3   832.5   14.87      18    999.0
 332   15:50   46.0    17    4.4   257     14.8   832.4   14.87      16    999.0
 332   16:00   45.7    16    4.2   258      8.2   832.3   14.87      11    999.0
 332   16:10   45.0    18    2.9   252      6.6   832.3   14.87      11    999.0
 332   16:20   44.6    18    3.7   253     11.3   832.2   14.87       8    999.0
 332   16:30   44.0    17    3.0   242      7.4   832.0   14.87       5    999.0
 332   16:40   44.1    16    4.0   260      9.3   832.1   14.87       3    999.0
 332   16:50   44.0    14    3.6   278      8.2   832.0   14.87       1    999.0
 332   17:00   43.4    14    3.5   262      9.6   831.9   14.87       0    999.0
 332   17:10   43.5    13    3.5   277      7.1   831.9   14.87       0    999.0
 332   17:20   43.5    13    3.8   273     12.5   831.8   14.87       0    999.0
 332   17:30   43.4    14    4.8   278     15.2   831.7   14.87       0    999.0
 332   17:40   42.8    16    4.2   242      9.4   831.3   14.87       0    999.0
 332   17:50   42.6    17    3.7   244      8.1   831.5   14.87       0    999.0
 332   18:00   42.1    18    3.3   255     10.5   831.8   14.87       0    999.0
 332   18:10   42.2    21    3.8   263      9.2   831.2   14.87       0    999.0
 332   18:20   42.0    22    2.9   241      7.7   831.4   14.87       0    999.0
 332   18:30   42.1    24    3.1   236      9.4   831.5   14.87       0    999.0
 332   18:40   41.7    25    3.2   243      6.3   831.3   14.87       0    999.0
 332   18:50   42.5    24    4.6   250     10.2   831.3   14.87       0    999.0
 332   19:00   42.6    24    4.2   229      9.7   831.4   14.87       0    999.0
 332   19:10   42.7    23    4.7   268     15.3   831.5   14.87       0    999.0
 332   19:20   43.1    22    4.8   251     13.9   831.3   14.87       0    999.0
 332   19:30   42.7    22    3.3   254      7.2   831.2   14.87       0    999.0
 332   19:40   42.8    20    3.8   268      9.8   830.8   14.87       0    999.0
 332   19:50   42.8    20    3.2   261      9.5   830.5   14.87       0    999.0
 332   20:00   43.4    17    4.3   263     11.3   830.2   14.87       0    999.0
 332   20:10   43.8    16    4.4   254     12.1   830.6   14.87       0    999.0
 332   20:20   44.0    16    6.1   275     14.5   830.6   14.87       0    999.0
 332   20:30   43.9    15    4.0   242      8.1   830.6   14.87       0    999.0
 332   20:40   43.7    15    4.1   232      9.1   830.7   14.87       0    999.0
 332   20:50   43.3    15    3.5   249      9.8   830.4   14.87       0    999.0
 332   21:00   43.5    14    4.4   255      9.4   830.0   14.87       0    999.0
 332   21:10   43.4    14    5.3   271     13.3   830.2   14.87       0    999.0
 332   21:20   43.3    14    4.2   244      8.8   830.5   14.87       0    999.0
 332   21:30   43.3    14    4.3   249      9.1   830.7   14.87       0    999.0
 332   21:40   43.1    15    3.8   249      9.0   831.1   14.87       0    999.0
 332   21:50   41.1    32    5.5   270     12.9   831.9   14.87       0    999.0
 332   22:00   37.3    48    5.2   266     10.3   832.6   14.87       0    999.0
 332   22:10   36.3    57    5.5   254     10.6   831.6   14.87       0    999.0

Return to Sagehen Creek graphs page.


Western Regional Climate Center,wrcc@dri.edu